sensor_id;sensor_type;location;lat;lon;timestamp;temperature;humidity
39067;DHT22;24821;51.988;6.020;2023-07-13T00:02:15;17.80;96.30
39067;DHT22;24821;51.988;6.020;2023-07-13T00:04:41;17.80;96.30
39067;DHT22;24821;51.988;6.020;2023-07-13T00:07:08;17.80;96.30
39067;DHT22;24821;51.988;6.020;2023-07-13T00:09:34;17.70;96.20
39067;DHT22;24821;51.988;6.020;2023-07-13T00:12:00;17.70;96.20
39067;DHT22;24821;51.988;6.020;2023-07-13T00:14:27;17.70;96.30
39067;DHT22;24821;51.988;6.020;2023-07-13T00:16:54;17.70;96.30
39067;DHT22;24821;51.988;6.020;2023-07-13T00:19:20;17.70;96.30
39067;DHT22;24821;51.988;6.020;2023-07-13T00:21:46;17.60;96.30
39067;DHT22;24821;51.988;6.020;2023-07-13T00:24:14;17.60;96.30
39067;DHT22;24821;51.988;6.020;2023-07-13T00:26:41;17.60;96.20
39067;DHT22;24821;51.988;6.020;2023-07-13T00:29:10;17.60;96.30
39067;DHT22;24821;51.988;6.020;2023-07-13T00:31:36;17.60;96.40
39067;DHT22;24821;51.988;6.020;2023-07-13T00:34:02;17.60;96.30
39067;DHT22;24821;51.988;6.020;2023-07-13T00:36:29;17.50;96.40
39067;DHT22;24821;51.988;6.020;2023-07-13T00:38:55;17.50;96.50
39067;DHT22;24821;51.988;6.020;2023-07-13T00:41:21;17.60;96.50
39067;DHT22;24821;51.988;6.020;2023-07-13T00:43:47;17.60;96.50
39067;DHT22;24821;51.988;6.020;2023-07-13T00:46:27;17.60;96.60
39067;DHT22;24821;51.988;6.020;2023-07-13T00:48:56;17.60;96.60
39067;DHT22;24821;51.988;6.020;2023-07-13T00:51:43;17.50;96.60
39067;DHT22;24821;51.988;6.020;2023-07-13T00:54:13;17.50;96.50
39067;DHT22;24821;51.988;6.020;2023-07-13T00:56:41;17.40;96.70
39067;DHT22;24821;51.988;6.020;2023-07-13T00:59:08;17.40;96.70
39067;DHT22;24821;51.988;6.020;2023-07-13T01:01:35;17.40;96.70
39067;DHT22;24821;51.988;6.020;2023-07-13T01:04:02;17.40;96.80
39067;DHT22;24821;51.988;6.020;2023-07-13T01:06:28;17.40;96.80
39067;DHT22;24821;51.988;6.020;2023-07-13T01:08:56;17.30;96.80
39067;DHT22;24821;51.988;6.020;2023-07-13T01:11:23;17.30;96.90
39067;DHT22;24821;51.988;6.020;2023-07-13T01:13:49;17.20;96.90
39067;DHT22;24821;51.988;6.020;2023-07-13T01:16:27;17.20;97.00
39067;DHT22;24821;51.988;6.020;2023-07-13T01:18:53;17.20;97.00
39067;DHT22;24821;51.988;6.020;2023-07-13T01:21:19;17.10;97.00
39067;DHT22;24821;51.988;6.020;2023-07-13T01:23:45;17.10;97.10
39067;DHT22;24821;51.988;6.020;2023-07-13T01:26:11;17.10;97.20
39067;DHT22;24821;51.988;6.020;2023-07-13T01:28:37;17.10;97.20
39067;DHT22;24821;51.988;6.020;2023-07-13T01:31:04;17.10;97.30
39067;DHT22;24821;51.988;6.020;2023-07-13T01:33:29;17.10;97.30
39067;DHT22;24821;51.988;6.020;2023-07-13T01:35:55;17.00;97.30
39067;DHT22;24821;51.988;6.020;2023-07-13T01:38:23;17.00;97.70
39067;DHT22;24821;51.988;6.020;2023-07-13T01:40:50;17.00;97.50
39067;DHT22;24821;51.988;6.020;2023-07-13T01:43:17;16.90;97.50
39067;DHT22;24821;51.988;6.020;2023-07-13T01:45:42;16.90;97.50
39067;DHT22;24821;51.988;6.020;2023-07-13T01:48:09;16.90;97.50
39067;DHT22;24821;51.988;6.020;2023-07-13T01:50:35;16.90;97.80
39067;DHT22;24821;51.988;6.020;2023-07-13T01:53:01;16.90;97.50
39067;DHT22;24821;51.988;6.020;2023-07-13T01:55:28;16.90;97.60
39067;DHT22;24821;51.988;6.020;2023-07-13T01:57:54;16.80;97.60
39067;DHT22;24821;51.988;6.020;2023-07-13T02:00:20;16.80;97.70
39067;DHT22;24821;51.988;6.020;2023-07-13T02:02:45;16.90;97.80
39067;DHT22;24821;51.988;6.020;2023-07-13T02:05:12;16.90;97.90
39067;DHT22;24821;51.988;6.020;2023-07-13T02:07:38;16.90;97.80
39067;DHT22;24821;51.988;6.020;2023-07-13T02:10:05;16.90;97.90
39067;DHT22;24821;51.988;6.020;2023-07-13T02:12:31;16.90;97.90
39067;DHT22;24821;51.988;6.020;2023-07-13T02:14:57;16.90;97.90
39067;DHT22;24821;51.988;6.020;2023-07-13T02:17:23;16.90;97.90
39067;DHT22;24821;51.988;6.020;2023-07-13T02:19:48;16.90;98.00
39067;DHT22;24821;51.988;6.020;2023-07-13T02:22:14;16.90;98.00
39067;DHT22;24821;51.988;6.020;2023-07-13T02:24:40;16.80;98.00
39067;DHT22;24821;51.988;6.020;2023-07-13T02:27:05;16.80;98.10
39067;DHT22;24821;51.988;6.020;2023-07-13T02:29:31;16.80;98.20
39067;DHT22;24821;51.988;6.020;2023-07-13T02:31:57;16.70;98.40
39067;DHT22;24821;51.988;6.020;2023-07-13T02:34:22;16.70;98.50
39067;DHT22;24821;51.988;6.020;2023-07-13T02:36:48;16.70;98.60
39067;DHT22;24821;51.988;6.020;2023-07-13T02:39:14;16.70;98.70
39067;DHT22;24821;51.988;6.020;2023-07-13T02:41:39;16.70;98.70
39067;DHT22;24821;51.988;6.020;2023-07-13T02:44:05;16.70;98.80
39067;DHT22;24821;51.988;6.020;2023-07-13T02:46:32;16.60;98.80
39067;DHT22;24821;51.988;6.020;2023-07-13T02:48:58;16.60;98.90
39067;DHT22;24821;51.988;6.020;2023-07-13T02:51:24;16.60;99.10
39067;DHT22;24821;51.988;6.020;2023-07-13T02:53:50;16.60;99.20
39067;DHT22;24821;51.988;6.020;2023-07-13T02:56:15;16.60;99.30
39067;DHT22;24821;51.988;6.020;2023-07-13T02:58:41;16.60;99.40
39067;DHT22;24821;51.988;6.020;2023-07-13T03:01:11;16.60;99.40
39067;DHT22;24821;51.988;6.020;2023-07-13T03:03:37;16.60;99.50
39067;DHT22;24821;51.988;6.020;2023-07-13T03:06:04;16.50;99.50
39067;DHT22;24821;51.988;6.020;2023-07-13T03:08:31;16.50;99.60
39067;DHT22;24821;51.988;6.020;2023-07-13T03:11:01;16.50;99.70
39067;DHT22;24821;51.988;6.020;2023-07-13T03:13:27;16.50;99.80
39067;DHT22;24821;51.988;6.020;2023-07-13T03:15:53;16.50;99.90
39067;DHT22;24821;51.988;6.020;2023-07-13T03:18:18;16.40;99.90
39067;DHT22;24821;51.988;6.020;2023-07-13T03:20:44;16.40;99.90
39067;DHT22;24821;51.988;6.020;2023-07-13T03:23:10;16.40;99.90
39067;DHT22;24821;51.988;6.020;2023-07-13T03:25:35;16.40;99.90
39067;DHT22;24821;51.988;6.020;2023-07-13T03:28:01;16.30;99.90
39067;DHT22;24821;51.988;6.020;2023-07-13T03:30:26;16.30;99.90
39067;DHT22;24821;51.988;6.020;2023-07-13T03:32:52;16.30;99.90
39067;DHT22;24821;51.988;6.020;2023-07-13T03:35:18;16.20;99.90
39067;DHT22;24821;51.988;6.020;2023-07-13T03:37:43;16.20;99.90
39067;DHT22;24821;51.988;6.020;2023-07-13T03:40:10;16.20;99.90
39067;DHT22;24821;51.988;6.020;2023-07-13T03:42:35;16.20;99.90
39067;DHT22;24821;51.988;6.020;2023-07-13T03:45:01;16.20;99.90
39067;DHT22;24821;51.988;6.020;2023-07-13T03:47:27;16.20;99.90
39067;DHT22;24821;51.988;6.020;2023-07-13T03:49:53;16.20;99.90
39067;DHT22;24821;51.988;6.020;2023-07-13T03:52:18;16.20;99.90
39067;DHT22;24821;51.988;6.020;2023-07-13T03:54:44;16.20;99.90
39067;DHT22;24821;51.988;6.020;2023-07-13T03:57:10;16.20;99.90
39067;DHT22;24821;51.988;6.020;2023-07-13T03:59:36;16.20;99.90
39067;DHT22;24821;51.988;6.020;2023-07-13T04:02:02;16.20;99.90
39067;DHT22;24821;51.988;6.020;2023-07-13T04:04:29;16.20;99.90
39067;DHT22;24821;51.988;6.020;2023-07-13T04:06:59;16.20;99.90
39067;DHT22;24821;51.988;6.020;2023-07-13T04:09:25;16.20;99.90
39067;DHT22;24821;51.988;6.020;2023-07-13T04:11:50;16.20;99.90
39067;DHT22;24821;51.988;6.020;2023-07-13T04:14:16;16.20;99.90
39067;DHT22;24821;51.988;6.020;2023-07-13T04:16:42;16.20;99.90
39067;DHT22;24821;51.988;6.020;2023-07-13T04:19:09;16.30;99.90
39067;DHT22;24821;51.988;6.020;2023-07-13T04:21:36;16.30;99.90
39067;DHT22;24821;51.988;6.020;2023-07-13T04:24:01;16.30;99.90
39067;DHT22;24821;51.988;6.020;2023-07-13T04:26:28;16.30;99.90
39067;DHT22;24821;51.988;6.020;2023-07-13T04:28:55;16.30;99.90
39067;DHT22;24821;51.988;6.020;2023-07-13T04:31:21;16.30;99.90
39067;DHT22;24821;51.988;6.020;2023-07-13T04:33:47;16.30;99.90
39067;DHT22;24821;51.988;6.020;2023-07-13T04:36:14;16.30;99.90
39067;DHT22;24821;51.988;6.020;2023-07-13T04:38:39;16.30;99.90
39067;DHT22;24821;51.988;6.020;2023-07-13T04:41:06;16.40;99.90
39067;DHT22;24821;51.988;6.020;2023-07-13T04:43:33;16.40;99.90
39067;DHT22;24821;51.988;6.020;2023-07-13T04:46:04;16.40;99.90
39067;DHT22;24821;51.988;6.020;2023-07-13T04:48:31;16.50;99.90
39067;DHT22;24821;51.988;6.020;2023-07-13T04:50:57;16.60;99.90
39067;DHT22;24821;51.988;6.020;2023-07-13T04:53:24;16.70;99.90
39067;DHT22;24821;51.988;6.020;2023-07-13T04:55:50;16.70;99.90
39067;DHT22;24821;51.988;6.020;2023-07-13T04:58:16;16.70;99.90
39067;DHT22;24821;51.988;6.020;2023-07-13T05:00:42;16.70;99.90
39067;DHT22;24821;51.988;6.020;2023-07-13T05:03:08;16.80;99.90
39067;DHT22;24821;51.988;6.020;2023-07-13T05:05:34;16.90;99.90
39067;DHT22;24821;51.988;6.020;2023-07-13T05:07:59;16.90;99.90
39067;DHT22;24821;51.988;6.020;2023-07-13T05:10:25;16.90;99.90
39067;DHT22;24821;51.988;6.020;2023-07-13T05:12:51;17.00;99.90
39067;DHT22;24821;51.988;6.020;2023-07-13T05:15:17;17.00;99.90
39067;DHT22;24821;51.988;6.020;2023-07-13T05:17:49;17.10;99.90
39067;DHT22;24821;51.988;6.020;2023-07-13T05:20:16;17.10;99.90
39067;DHT22;24821;51.988;6.020;2023-07-13T05:22:42;17.20;99.90
39067;DHT22;24821;51.988;6.020;2023-07-13T05:25:08;17.20;99.90
39067;DHT22;24821;51.988;6.020;2023-07-13T05:27:35;17.20;99.90
39067;DHT22;24821;51.988;6.020;2023-07-13T05:30:02;17.20;99.90
39067;DHT22;24821;51.988;6.020;2023-07-13T05:32:28;17.20;99.90
39067;DHT22;24821;51.988;6.020;2023-07-13T05:34:53;17.20;99.90
39067;DHT22;24821;51.988;6.020;2023-07-13T05:37:19;17.20;99.90
39067;DHT22;24821;51.988;6.020;2023-07-13T05:39:45;17.20;99.90
39067;DHT22;24821;51.988;6.020;2023-07-13T05:42:10;17.20;99.90
39067;DHT22;24821;51.988;6.020;2023-07-13T05:44:36;17.20;99.90
39067;DHT22;24821;51.988;6.020;2023-07-13T05:47:02;17.30;99.90
39067;DHT22;24821;51.988;6.020;2023-07-13T05:49:29;17.20;99.90
39067;DHT22;24821;51.988;6.020;2023-07-13T05:51:56;17.30;99.90
39067;DHT22;24821;51.988;6.020;2023-07-13T05:54:21;17.30;99.90
39067;DHT22;24821;51.988;6.020;2023-07-13T05:56:47;17.30;99.90
39067;DHT22;24821;51.988;6.020;2023-07-13T05:59:13;17.40;99.90
39067;DHT22;24821;51.988;6.020;2023-07-13T06:01:38;17.50;99.90
39067;DHT22;24821;51.988;6.020;2023-07-13T06:04:04;17.60;99.90
39067;DHT22;24821;51.988;6.020;2023-07-13T06:06:30;17.70;99.90
39067;DHT22;24821;51.988;6.020;2023-07-13T06:08:56;17.70;99.90
39067;DHT22;24821;51.988;6.020;2023-07-13T06:11:23;17.90;99.90
39067;DHT22;24821;51.988;6.020;2023-07-13T06:13:49;17.80;99.90
39067;DHT22;24821;51.988;6.020;2023-07-13T06:16:15;17.90;99.90
39067;DHT22;24821;51.988;6.020;2023-07-13T06:18:41;18.00;99.90
39067;DHT22;24821;51.988;6.020;2023-07-13T06:21:09;18.10;99.90
39067;DHT22;24821;51.988;6.020;2023-07-13T06:23:35;18.20;99.90
39067;DHT22;24821;51.988;6.020;2023-07-13T06:26:02;18.30;99.90
39067;DHT22;24821;51.988;6.020;2023-07-13T06:28:28;18.40;99.90
39067;DHT22;24821;51.988;6.020;2023-07-13T06:30:54;18.40;99.90
39067;DHT22;24821;51.988;6.020;2023-07-13T06:33:20;18.60;99.90
39067;DHT22;24821;51.988;6.020;2023-07-13T06:35:45;18.70;99.90
39067;DHT22;24821;51.988;6.020;2023-07-13T06:38:11;18.70;99.90
39067;DHT22;24821;51.988;6.020;2023-07-13T06:40:36;18.70;99.90
39067;DHT22;24821;51.988;6.020;2023-07-13T06:43:02;18.80;99.90
39067;DHT22;24821;51.988;6.020;2023-07-13T06:45:28;18.80;99.90
39067;DHT22;24821;51.988;6.020;2023-07-13T06:47:53;18.80;99.90
39067;DHT22;24821;51.988;6.020;2023-07-13T06:50:19;18.80;99.90
39067;DHT22;24821;51.988;6.020;2023-07-13T06:52:45;18.90;99.90
39067;DHT22;24821;51.988;6.020;2023-07-13T06:55:11;19.10;99.90
39067;DHT22;24821;51.988;6.020;2023-07-13T06:57:37;19.20;99.90
39067;DHT22;24821;51.988;6.020;2023-07-13T07:00:03;19.20;99.90
39067;DHT22;24821;51.988;6.020;2023-07-13T07:02:29;19.20;99.90
39067;DHT22;24821;51.988;6.020;2023-07-13T07:04:54;19.20;99.90
39067;DHT22;24821;51.988;6.020;2023-07-13T07:07:23;19.20;99.90
39067;DHT22;24821;51.988;6.020;2023-07-13T07:09:49;19.30;99.90
39067;DHT22;24821;51.988;6.020;2023-07-13T07:12:15;19.30;99.90
39067;DHT22;24821;51.988;6.020;2023-07-13T07:14:40;19.30;99.90
39067;DHT22;24821;51.988;6.020;2023-07-13T07:17:06;19.50;99.90
39067;DHT22;24821;51.988;6.020;2023-07-13T07:19:32;19.50;99.90
39067;DHT22;24821;51.988;6.020;2023-07-13T07:21:57;19.60;99.90
39067;DHT22;24821;51.988;6.020;2023-07-13T07:24:23;19.60;99.90
39067;DHT22;24821;51.988;6.020;2023-07-13T07:26:49;19.60;99.90
39067;DHT22;24821;51.988;6.020;2023-07-13T07:29:14;19.60;99.90
39067;DHT22;24821;51.988;6.020;2023-07-13T07:31:40;19.60;99.90
39067;DHT22;24821;51.988;6.020;2023-07-13T07:34:05;19.60;99.90
39067;DHT22;24821;51.988;6.020;2023-07-13T07:36:31;19.70;99.90
39067;DHT22;24821;51.988;6.020;2023-07-13T07:38:57;19.70;99.90
39067;DHT22;24821;51.988;6.020;2023-07-13T07:41:22;19.90;99.90
39067;DHT22;24821;51.988;6.020;2023-07-13T07:43:48;20.00;99.90
39067;DHT22;24821;51.988;6.020;2023-07-13T07:46:14;20.10;99.80
39067;DHT22;24821;51.988;6.020;2023-07-13T07:48:40;20.10;99.70
39067;DHT22;24821;51.988;6.020;2023-07-13T07:51:05;20.10;99.60
39067;DHT22;24821;51.988;6.020;2023-07-13T07:53:31;20.10;99.40
39067;DHT22;24821;51.988;6.020;2023-07-13T07:55:56;20.00;99.80
39067;DHT22;24821;51.988;6.020;2023-07-13T07:58:22;20.10;99.70
39067;DHT22;24821;51.988;6.020;2023-07-13T08:00:48;20.20;99.50
39067;DHT22;24821;51.988;6.020;2023-07-13T08:03:13;20.30;99.50
39067;DHT22;24821;51.988;6.020;2023-07-13T08:05:39;20.40;99.30
39067;DHT22;24821;51.988;6.020;2023-07-13T08:08:05;20.40;99.10
39067;DHT22;24821;51.988;6.020;2023-07-13T08:10:30;20.50;98.90
39067;DHT22;24821;51.988;6.020;2023-07-13T08:12:56;20.60;98.90
39067;DHT22;24821;51.988;6.020;2023-07-13T08:15:22;20.70;98.80
39067;DHT22;24821;51.988;6.020;2023-07-13T08:17:48;20.90;99.20
39067;DHT22;24821;51.988;6.020;2023-07-13T08:20:14;21.20;98.60
39067;DHT22;24821;51.988;6.020;2023-07-13T08:22:40;21.30;98.20
39067;DHT22;24821;51.988;6.020;2023-07-13T08:25:06;21.40;98.30
39067;DHT22;24821;51.988;6.020;2023-07-13T08:27:33;21.50;97.40
39067;DHT22;24821;51.988;6.020;2023-07-13T08:29:58;21.70;97.40
39067;DHT22;24821;51.988;6.020;2023-07-13T08:32:24;21.70;97.10
39067;DHT22;24821;51.988;6.020;2023-07-13T08:34:50;21.90;96.30
39067;DHT22;24821;51.988;6.020;2023-07-13T08:37:16;21.90;96.40
39067;DHT22;24821;51.988;6.020;2023-07-13T08:39:42;21.70;96.40
39067;DHT22;24821;51.988;6.020;2023-07-13T08:44:57;22.00;96.70
39067;DHT22;24821;51.988;6.020;2023-07-13T08:47:28;22.30;96.60
39067;DHT22;24821;51.988;6.020;2023-07-13T08:49:55;23.00;94.70
39067;DHT22;24821;51.988;6.020;2023-07-13T08:54:55;23.30;93.40
39067;DHT22;24821;51.988;6.020;2023-07-13T08:57:27;23.20;93.60
39067;DHT22;24821;51.988;6.020;2023-07-13T08:59:55;23.20;94.10
39067;DHT22;24821;51.988;6.020;2023-07-13T09:03:16;23.10;94.10
39067;DHT22;24821;51.988;6.020;2023-07-13T09:05:38;22.90;93.90
39067;DHT22;24821;51.988;6.020;2023-07-13T09:10:57;22.30;94.60
39067;DHT22;24821;51.988;6.020;2023-07-13T09:13:42;22.10;94.50
39067;DHT22;24821;51.988;6.020;2023-07-13T09:16:10;21.80;94.60
39067;DHT22;24821;51.988;6.020;2023-07-13T09:18:45;21.60;94.80
39067;DHT22;24821;51.988;6.020;2023-07-13T09:21:17;21.60;95.40
39067;DHT22;24821;51.988;6.020;2023-07-13T09:23:45;22.10;95.40
39067;DHT22;24821;51.988;6.020;2023-07-13T09:26:21;22.50;93.90
39067;DHT22;24821;51.988;6.020;2023-07-13T09:31:55;22.70;92.60
39067;DHT22;24821;51.988;6.020;2023-07-13T09:34:24;22.80;92.60
39067;DHT22;24821;51.988;6.020;2023-07-13T09:36:49;23.00;92.80
39067;DHT22;24821;51.988;6.020;2023-07-13T09:39:37;23.30;91.60
39067;DHT22;24821;51.988;6.020;2023-07-13T09:42:17;23.40;91.60
39067;DHT22;24821;51.988;6.020;2023-07-13T09:44:53;23.30;91.80
39067;DHT22;24821;51.988;6.020;2023-07-13T09:49:56;22.80;92.30
39067;DHT22;24821;51.988;6.020;2023-07-13T09:52:23;22.50;92.80
39067;DHT22;24821;51.988;6.020;2023-07-13T09:54:51;22.20;92.90
39067;DHT22;24821;51.988;6.020;2023-07-13T09:57:23;21.90;93.80
39067;DHT22;24821;51.988;6.020;2023-07-13T09:59:51;21.70;93.10
39067;DHT22;24821;51.988;6.020;2023-07-13T10:02:32;21.60;94.60
39067;DHT22;24821;51.988;6.020;2023-07-13T10:05:10;21.50;94.90
39067;DHT22;24821;51.988;6.020;2023-07-13T10:07:43;21.50;95.10
39067;DHT22;24821;51.988;6.020;2023-07-13T10:10:20;21.50;95.50
39067;DHT22;24821;51.988;6.020;2023-07-13T10:12:46;21.50;95.50
39067;DHT22;24821;51.988;6.020;2023-07-13T10:15:24;21.60;95.70
39067;DHT22;24821;51.988;6.020;2023-07-13T10:17:52;21.60;95.60
39067;DHT22;24821;51.988;6.020;2023-07-13T10:20:18;21.60;96.00
39067;DHT22;24821;51.988;6.020;2023-07-13T10:25:22;22.30;95.70
39067;DHT22;24821;51.988;6.020;2023-07-13T10:28:06;22.50;95.10
39067;DHT22;24821;51.988;6.020;2023-07-13T10:30:40;22.80;93.70
39067;DHT22;24821;51.988;6.020;2023-07-13T10:33:10;22.90;93.90
39067;DHT22;24821;51.988;6.020;2023-07-13T10:35:37;23.10;94.00
39067;DHT22;24821;51.988;6.020;2023-07-13T10:38:11;23.40;93.60
39067;DHT22;24821;51.988;6.020;2023-07-13T10:40:40;23.70;94.00
39067;DHT22;24821;51.988;6.020;2023-07-13T10:43:25;23.90;92.80
39067;DHT22;24821;51.988;6.020;2023-07-13T10:45:53;24.00;92.10
39067;DHT22;24821;51.988;6.020;2023-07-13T10:48:21;23.70;92.10
39067;DHT22;24821;51.988;6.020;2023-07-13T10:50:49;23.50;92.40
39067;DHT22;24821;51.988;6.020;2023-07-13T10:53:30;23.30;92.40
39067;DHT22;24821;51.988;6.020;2023-07-13T10:56:02;23.10;92.50
39067;DHT22;24821;51.988;6.020;2023-07-13T10:58:41;22.90;92.50
39067;DHT22;24821;51.988;6.020;2023-07-13T11:01:16;22.60;92.70
39067;DHT22;24821;51.988;6.020;2023-07-13T11:03:56;22.40;94.90
39067;DHT22;24821;51.988;6.020;2023-07-13T11:06:33;22.00;96.30
39067;DHT22;24821;51.988;6.020;2023-07-13T11:11:43;21.70;98.60
39067;DHT22;24821;51.988;6.020;2023-07-13T11:16:53;22.30;98.80
39067;DHT22;24821;51.988;6.020;2023-07-13T11:24:29;22.60;97.60
39067;DHT22;24821;51.988;6.020;2023-07-13T11:33:17;23.10;96.80
39067;DHT22;24821;51.988;6.020;2023-07-13T11:36:35;23.10;95.70
39067;DHT22;24821;51.988;6.020;2023-07-13T11:38:39;23.00;95.80
39067;DHT22;24821;51.988;6.020;2023-07-13T11:41:18;22.90;95.20
39067;DHT22;24821;51.988;6.020;2023-07-13T11:43:45;22.70;95.30
39067;DHT22;24821;51.988;6.020;2023-07-13T11:46:24;22.50;95.50
39067;DHT22;24821;51.988;6.020;2023-07-13T11:48:51;22.80;95.30
39067;DHT22;24821;51.988;6.020;2023-07-13T11:51:27;23.00;95.00
39067;DHT22;24821;51.988;6.020;2023-07-13T11:53:55;23.10;94.60
39067;DHT22;24821;51.988;6.020;2023-07-13T11:56:23;23.10;94.00
39067;DHT22;24821;51.988;6.020;2023-07-13T11:58:51;23.20;93.20
39067;DHT22;24821;51.988;6.020;2023-07-13T12:01:25;23.30;93.30
39067;DHT22;24821;51.988;6.020;2023-07-13T12:03:54;23.60;92.90
39067;DHT22;24821;51.988;6.020;2023-07-13T12:06:34;23.70;91.70
39067;DHT22;24821;51.988;6.020;2023-07-13T12:09:14;23.80;92.60
39067;DHT22;24821;51.988;6.020;2023-07-13T12:11:44;23.90;91.80
39067;DHT22;24821;51.988;6.020;2023-07-13T12:14:17;23.80;91.50
39067;DHT22;24821;51.988;6.020;2023-07-13T12:16:43;23.60;91.80
39067;DHT22;24821;51.988;6.020;2023-07-13T12:19:23;23.50;91.80
39067;DHT22;24821;51.988;6.020;2023-07-13T12:21:50;23.30;92.10
39067;DHT22;24821;51.988;6.020;2023-07-13T12:24:18;23.10;91.90
39067;DHT22;24821;51.988;6.020;2023-07-13T12:26:44;22.90;92.00
39067;DHT22;24821;51.988;6.020;2023-07-13T12:29:17;22.80;92.70
39067;DHT22;24821;51.988;6.020;2023-07-13T12:31:45;22.90;93.50
39067;DHT22;24821;51.988;6.020;2023-07-13T12:34:16;23.00;94.20
39067;DHT22;24821;51.988;6.020;2023-07-13T12:36:55;23.20;94.70
39067;DHT22;24821;51.988;6.020;2023-07-13T12:39:44;23.70;94.20
39067;DHT22;24821;51.988;6.020;2023-07-13T12:42:26;24.00;93.00
39067;DHT22;24821;51.988;6.020;2023-07-13T12:45:03;24.30;92.40
39067;DHT22;24821;51.988;6.020;2023-07-13T12:47:30;24.50;91.20
39067;DHT22;24821;51.988;6.020;2023-07-13T12:49:58;24.50;90.50
39067;DHT22;24821;51.988;6.020;2023-07-13T12:52:34;24.30;90.80
39067;DHT22;24821;51.988;6.020;2023-07-13T12:55:11;24.30;91.50
39067;DHT22;24821;51.988;6.020;2023-07-13T12:57:41;24.00;90.80
39067;DHT22;24821;51.988;6.020;2023-07-13T13:00:25;23.60;91.00
39067;DHT22;24821;51.988;6.020;2023-07-13T13:02:54;23.40;91.40
39067;DHT22;24821;51.988;6.020;2023-07-13T13:05:21;23.10;92.00
39067;DHT22;24821;51.988;6.020;2023-07-13T13:07:49;23.00;92.40
39067;DHT22;24821;51.988;6.020;2023-07-13T13:10:15;22.80;92.50
39067;DHT22;24821;51.988;6.020;2023-07-13T13:12:41;22.70;92.60
39067;DHT22;24821;51.988;6.020;2023-07-13T13:15:09;22.70;92.90
39067;DHT22;24821;51.988;6.020;2023-07-13T13:17:35;23.00;92.60
39067;DHT22;24821;51.988;6.020;2023-07-13T13:20:01;23.10;92.50
39067;DHT22;24821;51.988;6.020;2023-07-13T13:22:27;23.20;92.30
39067;DHT22;24821;51.988;6.020;2023-07-13T13:24:52;23.30;92.40
39067;DHT22;24821;51.988;6.020;2023-07-13T13:27:19;23.60;92.30
39067;DHT22;24821;51.988;6.020;2023-07-13T13:29:47;23.70;91.90
39067;DHT22;24821;51.988;6.020;2023-07-13T13:32:15;23.80;91.40
39067;DHT22;24821;51.988;6.020;2023-07-13T13:34:41;23.90;91.70
39067;DHT22;24821;51.988;6.020;2023-07-13T13:37:20;24.00;91.50
39067;DHT22;24821;51.988;6.020;2023-07-13T13:39:46;24.30;91.10
39067;DHT22;24821;51.988;6.020;2023-07-13T13:42:12;24.50;91.00
39067;DHT22;24821;51.988;6.020;2023-07-13T13:44:38;24.60;90.50
39067;DHT22;24821;51.988;6.020;2023-07-13T13:47:28;24.60;90.50
39067;DHT22;24821;51.988;6.020;2023-07-13T13:49:54;24.60;90.80
39067;DHT22;24821;51.988;6.020;2023-07-13T13:52:20;24.50;90.50
39067;DHT22;24821;51.988;6.020;2023-07-13T13:54:46;24.30;90.60
39067;DHT22;24821;51.988;6.020;2023-07-13T13:57:11;24.30;91.20
39067;DHT22;24821;51.988;6.020;2023-07-13T13:59:38;24.40;91.10
39067;DHT22;24821;51.988;6.020;2023-07-13T14:02:32;24.60;91.00
39067;DHT22;24821;51.988;6.020;2023-07-13T14:05:00;24.60;90.80
39067;DHT22;24821;51.988;6.020;2023-07-13T14:07:27;24.60;91.20
39067;DHT22;24821;51.988;6.020;2023-07-13T14:09:56;24.80;91.50
39067;DHT22;24821;51.988;6.020;2023-07-13T14:12:22;24.90;91.00
39067;DHT22;24821;51.988;6.020;2023-07-13T14:14:50;24.90;90.90
39067;DHT22;24821;51.988;6.020;2023-07-13T14:17:24;24.90;90.40
39067;DHT22;24821;51.988;6.020;2023-07-13T14:19:52;25.00;86.20
39067;DHT22;24821;51.988;6.020;2023-07-13T14:22:24;25.20;86.00
39067;DHT22;24821;51.988;6.020;2023-07-13T14:24:54;25.30;82.70
39067;DHT22;24821;51.988;6.020;2023-07-13T14:27:21;25.30;83.40
39067;DHT22;24821;51.988;6.020;2023-07-13T14:29:47;25.10;83.30
39067;DHT22;24821;51.988;6.020;2023-07-13T14:32:13;25.20;83.60
39067;DHT22;24821;51.988;6.020;2023-07-13T14:34:39;25.20;83.90
39067;DHT22;24821;51.988;6.020;2023-07-13T14:37:05;25.10;83.30
39067;DHT22;24821;51.988;6.020;2023-07-13T14:39:33;25.00;83.70
39067;DHT22;24821;51.988;6.020;2023-07-13T14:41:59;24.80;81.70
39067;DHT22;24821;51.988;6.020;2023-07-13T14:44:27;24.70;82.50
39067;DHT22;24821;51.988;6.020;2023-07-13T14:46:58;24.50;83.10
39067;DHT22;24821;51.988;6.020;2023-07-13T14:49:42;24.40;84.10
39067;DHT22;24821;51.988;6.020;2023-07-13T14:52:20;24.40;82.90
39067;DHT22;24821;51.988;6.020;2023-07-13T14:54:46;24.40;83.40
39067;DHT22;24821;51.988;6.020;2023-07-13T14:57:14;24.30;82.90
39067;DHT22;24821;51.988;6.020;2023-07-13T14:59:40;24.30;83.10
39067;DHT22;24821;51.988;6.020;2023-07-13T15:02:35;24.30;82.00
39067;DHT22;24821;51.988;6.020;2023-07-13T15:05:12;24.20;82.90
39067;DHT22;24821;51.988;6.020;2023-07-13T15:07:38;24.00;83.50
39067;DHT22;24821;51.988;6.020;2023-07-13T15:10:15;23.90;83.30
39067;DHT22;24821;51.988;6.020;2023-07-13T15:12:41;23.80;83.20
39067;DHT22;24821;51.988;6.020;2023-07-13T15:15:07;23.70;84.40
39067;DHT22;24821;51.988;6.020;2023-07-13T15:17:43;23.70;84.20
39067;DHT22;24821;51.988;6.020;2023-07-13T15:20:29;23.80;83.70
39067;DHT22;24821;51.988;6.020;2023-07-13T15:22:56;24.00;84.50
39067;DHT22;24821;51.988;6.020;2023-07-13T15:25:24;24.00;83.80
39067;DHT22;24821;51.988;6.020;2023-07-13T15:27:51;24.10;84.30
39067;DHT22;24821;51.988;6.020;2023-07-13T15:30:16;24.00;82.90
39067;DHT22;24821;51.988;6.020;2023-07-13T15:32:43;23.90;83.70
39067;DHT22;24821;51.988;6.020;2023-07-13T15:35:18;23.80;82.60
39067;DHT22;24821;51.988;6.020;2023-07-13T15:37:44;23.60;84.10
39067;DHT22;24821;51.988;6.020;2023-07-13T15:40:11;23.60;84.00
39067;DHT22;24821;51.988;6.020;2023-07-13T15:42:38;23.50;83.80
39067;DHT22;24821;51.988;6.020;2023-07-13T15:45:20;23.50;84.50
39067;DHT22;24821;51.988;6.020;2023-07-13T15:47:47;23.40;84.40
39067;DHT22;24821;51.988;6.020;2023-07-13T15:50:18;23.30;84.80
39067;DHT22;24821;51.988;6.020;2023-07-13T15:52:48;23.30;85.20
39067;DHT22;24821;51.988;6.020;2023-07-13T15:55:15;23.30;84.70
39067;DHT22;24821;51.988;6.020;2023-07-13T15:57:49;23.20;85.50
39067;DHT22;24821;51.988;6.020;2023-07-13T16:00:24;23.20;86.90
39067;DHT22;24821;51.988;6.020;2023-07-13T16:02:50;23.20;86.30
39067;DHT22;24821;51.988;6.020;2023-07-13T16:05:17;23.10;86.50
39067;DHT22;24821;51.988;6.020;2023-07-13T16:07:45;23.20;86.60
39067;DHT22;24821;51.988;6.020;2023-07-13T16:10:16;23.20;87.60
39067;DHT22;24821;51.988;6.020;2023-07-13T16:12:42;23.30;88.30